sensor_id;sensor_type;location;lat;lon;timestamp;P1;durP1;ratioP1;P2;durP2;ratioP2
19605;SDS011;9950;50.168;8.210;2022-11-20T00:00:53;35.72;;;16.30;;
19605;SDS011;9950;50.168;8.210;2022-11-20T00:03:20;36.08;;;16.10;;
19605;SDS011;9950;50.168;8.210;2022-11-20T00:05:48;34.72;;;15.98;;
19605;SDS011;9950;50.168;8.210;2022-11-20T00:08:16;36.67;;;16.65;;
19605;SDS011;9950;50.168;8.210;2022-11-20T00:10:43;35.38;;;15.65;;
19605;SDS011;9950;50.168;8.210;2022-11-20T00:13:11;36.53;;;16.58;;
19605;SDS011;9950;50.168;8.210;2022-11-20T00:15:39;33.75;;;15.95;;
19605;SDS011;9950;50.168;8.210;2022-11-20T00:18:08;35.45;;;16.90;;
19605;SDS011;9950;50.168;8.210;2022-11-20T00:20:35;36.47;;;16.27;;
19605;SDS011;9950;50.168;8.210;2022-11-20T00:23:03;32.28;;;15.63;;
19605;SDS011;9950;50.168;8.210;2022-11-20T00:25:31;32.25;;;14.60;;
19605;SDS011;9950;50.168;8.210;2022-11-20T00:27:58;34.55;;;15.35;;
19605;SDS011;9950;50.168;8.210;2022-11-20T00:30:25;31.40;;;14.75;;
19605;SDS011;9950;50.168;8.210;2022-11-20T00:32:53;32.47;;;15.40;;
19605;SDS011;9950;50.168;8.210;2022-11-20T00:35:22;33.78;;;16.00;;
19605;SDS011;9950;50.168;8.210;2022-11-20T00:37:50;33.17;;;15.07;;
19605;SDS011;9950;50.168;8.210;2022-11-20T00:40:17;34.58;;;15.73;;
19605;SDS011;9950;50.168;8.210;2022-11-20T00:42:44;32.00;;;15.07;;
19605;SDS011;9950;50.168;8.210;2022-11-20T00:45:12;30.88;;;14.57;;
19605;SDS011;9950;50.168;8.210;2022-11-20T00:47:39;29.77;;;14.52;;
19605;SDS011;9950;50.168;8.210;2022-11-20T00:50:07;31.15;;;14.45;;
19605;SDS011;9950;50.168;8.210;2022-11-20T00:52:36;28.75;;;14.02;;
19605;SDS011;9950;50.168;8.210;2022-11-20T00:55:03;29.83;;;13.57;;
19605;SDS011;9950;50.168;8.210;2022-11-20T00:57:31;30.60;;;14.63;;
19605;SDS011;9950;50.168;8.210;2022-11-20T00:59:58;34.17;;;15.85;;
19605;SDS011;9950;50.168;8.210;2022-11-20T01:02:28;30.83;;;15.52;;
19605;SDS011;9950;50.168;8.210;2022-11-20T01:04:56;34.13;;;16.27;;
19605;SDS011;9950;50.168;8.210;2022-11-20T01:07:23;31.88;;;15.68;;
19605;SDS011;9950;50.168;8.210;2022-11-20T01:09:52;32.58;;;15.35;;
19605;SDS011;9950;50.168;8.210;2022-11-20T01:12:19;30.30;;;14.48;;
19605;SDS011;9950;50.168;8.210;2022-11-20T01:14:47;30.65;;;14.90;;
19605;SDS011;9950;50.168;8.210;2022-11-20T01:17:14;33.28;;;15.45;;
19605;SDS011;9950;50.168;8.210;2022-11-20T01:19:41;33.67;;;16.25;;
19605;SDS011;9950;50.168;8.210;2022-11-20T01:22:09;31.98;;;15.40;;
19605;SDS011;9950;50.168;8.210;2022-11-20T01:24:36;34.40;;;16.52;;
19605;SDS011;9950;50.168;8.210;2022-11-20T01:27:05;34.83;;;16.02;;
19605;SDS011;9950;50.168;8.210;2022-11-20T01:29:33;38.78;;;16.55;;
19605;SDS011;9950;50.168;8.210;2022-11-20T01:32:00;33.40;;;16.85;;
19605;SDS011;9950;50.168;8.210;2022-11-20T01:34:28;38.15;;;16.67;;
19605;SDS011;9950;50.168;8.210;2022-11-20T01:36:58;37.08;;;16.45;;
19605;SDS011;9950;50.168;8.210;2022-11-20T01:39:26;34.13;;;16.92;;
19605;SDS011;9950;50.168;8.210;2022-11-20T01:41:54;37.63;;;16.52;;
19605;SDS011;9950;50.168;8.210;2022-11-20T01:44:48;32.40;;;15.25;;
19605;SDS011;9950;50.168;8.210;2022-11-20T01:47:16;34.35;;;14.90;;
19605;SDS011;9950;50.168;8.210;2022-11-20T01:49:45;30.25;;;14.93;;
19605;SDS011;9950;50.168;8.210;2022-11-20T01:52:14;32.05;;;15.90;;
19605;SDS011;9950;50.168;8.210;2022-11-20T01:54:44;34.35;;;16.30;;
19605;SDS011;9950;50.168;8.210;2022-11-20T01:57:14;33.20;;;14.80;;
19605;SDS011;9950;50.168;8.210;2022-11-20T01:59:45;37.90;;;16.27;;
19605;SDS011;9950;50.168;8.210;2022-11-20T02:02:15;39.80;;;16.73;;
19605;SDS011;9950;50.168;8.210;2022-11-20T02:04:42;33.80;;;15.80;;
19605;SDS011;9950;50.168;8.210;2022-11-20T02:07:11;35.35;;;15.95;;
19605;SDS011;9950;50.168;8.210;2022-11-20T02:09:39;31.40;;;14.45;;
19605;SDS011;9950;50.168;8.210;2022-11-20T02:12:07;32.33;;;14.85;;
19605;SDS011;9950;50.168;8.210;2022-11-20T02:14:56;32.90;;;15.05;;
19605;SDS011;9950;50.168;8.210;2022-11-20T02:17:23;36.10;;;15.32;;
19605;SDS011;9950;50.168;8.210;2022-11-20T02:19:50;29.15;;;13.18;;
19605;SDS011;9950;50.168;8.210;2022-11-20T02:22:19;30.30;;;13.93;;
19605;SDS011;9950;50.168;8.210;2022-11-20T02:24:50;33.85;;;14.43;;
19605;SDS011;9950;50.168;8.210;2022-11-20T02:27:18;30.20;;;14.43;;
19605;SDS011;9950;50.168;8.210;2022-11-20T02:29:46;29.58;;;14.75;;
19605;SDS011;9950;50.168;8.210;2022-11-20T02:32:18;31.30;;;13.32;;
19605;SDS011;9950;50.168;8.210;2022-11-20T02:34:46;31.77;;;14.77;;
19605;SDS011;9950;50.168;8.210;2022-11-20T02:37:13;28.58;;;14.13;;
19605;SDS011;9950;50.168;8.210;2022-11-20T02:39:41;28.73;;;13.65;;
19605;SDS011;9950;50.168;8.210;2022-11-20T02:42:10;30.30;;;14.40;;
19605;SDS011;9950;50.168;8.210;2022-11-20T02:44:38;30.02;;;14.23;;
19605;SDS011;9950;50.168;8.210;2022-11-20T02:47:05;27.80;;;13.15;;
19605;SDS011;9950;50.168;8.210;2022-11-20T02:49:32;27.15;;;13.02;;
19605;SDS011;9950;50.168;8.210;2022-11-20T02:51:59;30.20;;;13.43;;
19605;SDS011;9950;50.168;8.210;2022-11-20T02:54:27;29.52;;;13.73;;
19605;SDS011;9950;50.168;8.210;2022-11-20T02:56:54;32.55;;;14.15;;
19605;SDS011;9950;50.168;8.210;2022-11-20T02:59:23;25.40;;;13.55;;
19605;SDS011;9950;50.168;8.210;2022-11-20T03:01:50;25.63;;;13.25;;
19605;SDS011;9950;50.168;8.210;2022-11-20T03:04:17;25.52;;;12.63;;
19605;SDS011;9950;50.168;8.210;2022-11-20T03:06:45;23.75;;;11.82;;
19605;SDS011;9950;50.168;8.210;2022-11-20T03:09:12;23.63;;;10.95;;
19605;SDS011;9950;50.168;8.210;2022-11-20T03:11:39;27.02;;;13.45;;
19605;SDS011;9950;50.168;8.210;2022-11-20T03:14:07;27.38;;;13.15;;
19605;SDS011;9950;50.168;8.210;2022-11-20T03:16:35;27.42;;;12.32;;
19605;SDS011;9950;50.168;8.210;2022-11-20T03:19:03;28.67;;;12.32;;
19605;SDS011;9950;50.168;8.210;2022-11-20T03:21:30;30.48;;;13.50;;
19605;SDS011;9950;50.168;8.210;2022-11-20T03:23:59;27.33;;;12.43;;
19605;SDS011;9950;50.168;8.210;2022-11-20T03:26:27;28.38;;;12.93;;
19605;SDS011;9950;50.168;8.210;2022-11-20T03:28:55;27.08;;;13.35;;
19605;SDS011;9950;50.168;8.210;2022-11-20T03:31:23;29.27;;;13.25;;
19605;SDS011;9950;50.168;8.210;2022-11-20T03:33:53;25.92;;;12.10;;
19605;SDS011;9950;50.168;8.210;2022-11-20T03:36:20;26.75;;;13.02;;
19605;SDS011;9950;50.168;8.210;2022-11-20T03:38:48;27.90;;;13.90;;
19605;SDS011;9950;50.168;8.210;2022-11-20T03:41:16;29.83;;;13.48;;
19605;SDS011;9950;50.168;8.210;2022-11-20T03:43:46;28.75;;;13.75;;
19605;SDS011;9950;50.168;8.210;2022-11-20T03:46:13;30.02;;;13.40;;
19605;SDS011;9950;50.168;8.210;2022-11-20T03:48:41;29.95;;;13.45;;
19605;SDS011;9950;50.168;8.210;2022-11-20T03:51:10;28.15;;;13.82;;
19605;SDS011;9950;50.168;8.210;2022-11-20T03:53:38;31.08;;;14.15;;
19605;SDS011;9950;50.168;8.210;2022-11-20T03:56:06;27.35;;;12.80;;
19605;SDS011;9950;50.168;8.210;2022-11-20T03:58:34;27.67;;;13.15;;
19605;SDS011;9950;50.168;8.210;2022-11-20T04:01:11;28.42;;;13.13;;
19605;SDS011;9950;50.168;8.210;2022-11-20T04:03:40;33.08;;;13.80;;
19605;SDS011;9950;50.168;8.210;2022-11-20T04:06:08;29.63;;;13.27;;
19605;SDS011;9950;50.168;8.210;2022-11-20T04:08:37;28.45;;;13.38;;
19605;SDS011;9950;50.168;8.210;2022-11-20T04:11:08;31.95;;;14.05;;
19605;SDS011;9950;50.168;8.210;2022-11-20T04:13:36;32.25;;;13.73;;
19605;SDS011;9950;50.168;8.210;2022-11-20T04:16:03;31.35;;;14.07;;
19605;SDS011;9950;50.168;8.210;2022-11-20T04:18:33;28.05;;;14.05;;
19605;SDS011;9950;50.168;8.210;2022-11-20T04:21:01;29.23;;;13.05;;
19605;SDS011;9950;50.168;8.210;2022-11-20T04:23:29;34.90;;;13.30;;
19605;SDS011;9950;50.168;8.210;2022-11-20T04:26:01;31.83;;;13.68;;
19605;SDS011;9950;50.168;8.210;2022-11-20T04:28:29;30.58;;;12.60;;
19605;SDS011;9950;50.168;8.210;2022-11-20T04:31:01;29.63;;;13.40;;
19605;SDS011;9950;50.168;8.210;2022-11-20T04:33:28;28.55;;;11.93;;
19605;SDS011;9950;50.168;8.210;2022-11-20T04:35:59;27.88;;;12.23;;
19605;SDS011;9950;50.168;8.210;2022-11-20T04:38:26;26.35;;;10.90;;
19605;SDS011;9950;50.168;8.210;2022-11-20T04:40:55;31.05;;;12.63;;
19605;SDS011;9950;50.168;8.210;2022-11-20T04:43:24;27.67;;;11.68;;
19605;SDS011;9950;50.168;8.210;2022-11-20T04:45:51;30.58;;;11.07;;
19605;SDS011;9950;50.168;8.210;2022-11-20T04:48:19;31.75;;;11.65;;
19605;SDS011;9950;50.168;8.210;2022-11-20T04:50:46;25.77;;;10.57;;
19605;SDS011;9950;50.168;8.210;2022-11-20T04:53:13;30.98;;;11.20;;
19605;SDS011;9950;50.168;8.210;2022-11-20T04:55:41;27.85;;;11.80;;
19605;SDS011;9950;50.168;8.210;2022-11-20T04:58:08;35.92;;;12.13;;
19605;SDS011;9950;50.168;8.210;2022-11-20T05:00:37;36.60;;;12.38;;
19605;SDS011;9950;50.168;8.210;2022-11-20T05:03:04;39.65;;;12.50;;
19605;SDS011;9950;50.168;8.210;2022-11-20T05:05:33;38.22;;;12.80;;
19605;SDS011;9950;50.168;8.210;2022-11-20T05:08:00;36.03;;;12.23;;
19605;SDS011;9950;50.168;8.210;2022-11-20T05:10:28;35.22;;;12.50;;
19605;SDS011;9950;50.168;8.210;2022-11-20T05:12:56;42.83;;;12.50;;
19605;SDS011;9950;50.168;8.210;2022-11-20T05:15:24;41.55;;;13.05;;
19605;SDS011;9950;50.168;8.210;2022-11-20T05:17:52;35.08;;;11.95;;
19605;SDS011;9950;50.168;8.210;2022-11-20T05:20:20;48.05;;;13.27;;
19605;SDS011;9950;50.168;8.210;2022-11-20T05:22:47;48.20;;;13.93;;
19605;SDS011;9950;50.168;8.210;2022-11-20T05:25:14;37.08;;;12.75;;
19605;SDS011;9950;50.168;8.210;2022-11-20T05:27:42;40.50;;;11.98;;
19605;SDS011;9950;50.168;8.210;2022-11-20T05:30:09;48.08;;;14.23;;
19605;SDS011;9950;50.168;8.210;2022-11-20T05:32:37;38.55;;;13.57;;
19605;SDS011;9950;50.168;8.210;2022-11-20T05:35:06;39.85;;;12.30;;
19605;SDS011;9950;50.168;8.210;2022-11-20T05:37:33;35.42;;;12.77;;
19605;SDS011;9950;50.168;8.210;2022-11-20T05:40:01;48.22;;;13.57;;
19605;SDS011;9950;50.168;8.210;2022-11-20T05:42:29;32.10;;;11.65;;
19605;SDS011;9950;50.168;8.210;2022-11-20T05:44:57;39.85;;;13.02;;
19605;SDS011;9950;50.168;8.210;2022-11-20T05:47:24;44.20;;;13.65;;
19605;SDS011;9950;50.168;8.210;2022-11-20T05:49:52;39.70;;;13.48;;
19605;SDS011;9950;50.168;8.210;2022-11-20T05:52:20;49.65;;;13.90;;
19605;SDS011;9950;50.168;8.210;2022-11-20T05:54:48;42.60;;;13.50;;
19605;SDS011;9950;50.168;8.210;2022-11-20T05:57:15;52.92;;;13.77;;
19605;SDS011;9950;50.168;8.210;2022-11-20T05:59:43;49.88;;;13.60;;
19605;SDS011;9950;50.168;8.210;2022-11-20T06:02:10;45.40;;;12.65;;
19605;SDS011;9950;50.168;8.210;2022-11-20T06:04:38;37.47;;;12.43;;
19605;SDS011;9950;50.168;8.210;2022-11-20T06:07:05;49.53;;;13.80;;
19605;SDS011;9950;50.168;8.210;2022-11-20T06:09:34;54.40;;;13.55;;
19605;SDS011;9950;50.168;8.210;2022-11-20T06:12:01;55.65;;;14.40;;
19605;SDS011;9950;50.168;8.210;2022-11-20T06:14:29;62.17;;;14.48;;
19605;SDS011;9950;50.168;8.210;2022-11-20T06:16:56;80.35;;;16.35;;
19605;SDS011;9950;50.168;8.210;2022-11-20T06:19:24;62.55;;;14.20;;
19605;SDS011;9950;50.168;8.210;2022-11-20T06:21:52;73.43;;;14.98;;
19605;SDS011;9950;50.168;8.210;2022-11-20T06:24:19;58.28;;;15.23;;
19605;SDS011;9950;50.168;8.210;2022-11-20T06:26:49;66.90;;;14.60;;
19605;SDS011;9950;50.168;8.210;2022-11-20T06:29:20;53.63;;;14.27;;
19605;SDS011;9950;50.168;8.210;2022-11-20T06:31:47;78.15;;;15.95;;
19605;SDS011;9950;50.168;8.210;2022-11-20T06:34:17;62.83;;;15.35;;
19605;SDS011;9950;50.168;8.210;2022-11-20T06:36:45;51.97;;;14.68;;
19605;SDS011;9950;50.168;8.210;2022-11-20T06:39:12;49.92;;;13.50;;
19605;SDS011;9950;50.168;8.210;2022-11-20T06:41:40;55.60;;;13.73;;
19605;SDS011;9950;50.168;8.210;2022-11-20T06:44:08;40.25;;;13.35;;
19605;SDS011;9950;50.168;8.210;2022-11-20T06:46:36;36.67;;;12.45;;
19605;SDS011;9950;50.168;8.210;2022-11-20T06:49:03;41.08;;;13.43;;
19605;SDS011;9950;50.168;8.210;2022-11-20T06:51:31;46.90;;;14.13;;
19605;SDS011;9950;50.168;8.210;2022-11-20T06:53:58;41.50;;;12.68;;
19605;SDS011;9950;50.168;8.210;2022-11-20T06:56:26;37.38;;;12.48;;
19605;SDS011;9950;50.168;8.210;2022-11-20T06:58:53;37.08;;;12.65;;
19605;SDS011;9950;50.168;8.210;2022-11-20T07:01:22;41.70;;;13.18;;
19605;SDS011;9950;50.168;8.210;2022-11-20T07:03:50;41.20;;;12.40;;
19605;SDS011;9950;50.168;8.210;2022-11-20T07:06:18;35.13;;;12.38;;
19605;SDS011;9950;50.168;8.210;2022-11-20T07:08:46;46.97;;;13.80;;
19605;SDS011;9950;50.168;8.210;2022-11-20T07:11:14;49.40;;;12.95;;
19605;SDS011;9950;50.168;8.210;2022-11-20T07:13:42;41.83;;;13.07;;
19605;SDS011;9950;50.168;8.210;2022-11-20T07:16:10;38.33;;;12.30;;
19605;SDS011;9950;50.168;8.210;2022-11-20T07:18:40;34.00;;;12.23;;
19605;SDS011;9950;50.168;8.210;2022-11-20T07:21:09;34.38;;;13.02;;
19605;SDS011;9950;50.168;8.210;2022-11-20T07:23:37;29.88;;;11.13;;
19605;SDS011;9950;50.168;8.210;2022-11-20T07:26:09;27.95;;;11.38;;
19605;SDS011;9950;50.168;8.210;2022-11-20T07:28:38;29.92;;;11.48;;
19605;SDS011;9950;50.168;8.210;2022-11-20T07:31:05;33.53;;;13.00;;
19605;SDS011;9950;50.168;8.210;2022-11-20T07:33:34;32.60;;;10.93;;
19605;SDS011;9950;50.168;8.210;2022-11-20T07:36:04;32.67;;;13.45;;
19605;SDS011;9950;50.168;8.210;2022-11-20T07:38:33;37.63;;;12.65;;
19605;SDS011;9950;50.168;8.210;2022-11-20T07:41:01;41.50;;;12.70;;
19605;SDS011;9950;50.168;8.210;2022-11-20T07:43:28;31.35;;;13.07;;
19605;SDS011;9950;50.168;8.210;2022-11-20T07:45:57;33.55;;;12.98;;
19605;SDS011;9950;50.168;8.210;2022-11-20T07:48:25;32.70;;;12.55;;
19605;SDS011;9950;50.168;8.210;2022-11-20T07:50:54;32.90;;;13.93;;
19605;SDS011;9950;50.168;8.210;2022-11-20T07:53:24;33.97;;;12.65;;
19605;SDS011;9950;50.168;8.210;2022-11-20T07:55:52;36.85;;;14.07;;
19605;SDS011;9950;50.168;8.210;2022-11-20T07:58:20;31.33;;;13.23;;
19605;SDS011;9950;50.168;8.210;2022-11-20T08:00:49;35.50;;;13.45;;
19605;SDS011;9950;50.168;8.210;2022-11-20T08:03:17;35.35;;;14.38;;
19605;SDS011;9950;50.168;8.210;2022-11-20T08:05:46;34.28;;;13.52;;
19605;SDS011;9950;50.168;8.210;2022-11-20T08:08:14;35.25;;;13.77;;
19605;SDS011;9950;50.168;8.210;2022-11-20T08:10:45;34.72;;;15.82;;
19605;SDS011;9950;50.168;8.210;2022-11-20T08:13:13;35.28;;;15.02;;
19605;SDS011;9950;50.168;8.210;2022-11-20T08:15:58;64.72;;;25.98;;
19605;SDS011;9950;50.168;8.210;2022-11-20T08:18:27;35.17;;;13.25;;
19605;SDS011;9950;50.168;8.210;2022-11-20T08:20:56;33.75;;;14.57;;
19605;SDS011;9950;50.168;8.210;2022-11-20T08:23:24;34.78;;;14.73;;
19605;SDS011;9950;50.168;8.210;2022-11-20T08:25:54;31.60;;;14.23;;
19605;SDS011;9950;50.168;8.210;2022-11-20T08:28:27;32.38;;;15.18;;
19605;SDS011;9950;50.168;8.210;2022-11-20T08:30:57;29.85;;;13.07;;
19605;SDS011;9950;50.168;8.210;2022-11-20T08:33:26;29.27;;;13.63;;
19605;SDS011;9950;50.168;8.210;2022-11-20T08:35:57;24.83;;;11.48;;
19605;SDS011;9950;50.168;8.210;2022-11-20T08:38:26;26.73;;;10.93;;
19605;SDS011;9950;50.168;8.210;2022-11-20T08:40:57;28.13;;;10.95;;
19605;SDS011;9950;50.168;8.210;2022-11-20T08:43:43;23.83;;;10.80;;
19605;SDS011;9950;50.168;8.210;2022-11-20T08:46:13;30.58;;;14.50;;
19605;SDS011;9950;50.168;8.210;2022-11-20T08:48:42;31.90;;;17.55;;
19605;SDS011;9950;50.168;8.210;2022-11-20T08:51:11;32.13;;;16.83;;
19605;SDS011;9950;50.168;8.210;2022-11-20T08:53:40;23.75;;;11.90;;
19605;SDS011;9950;50.168;8.210;2022-11-20T08:56:10;28.30;;;12.63;;
19605;SDS011;9950;50.168;8.210;2022-11-20T08:58:38;26.40;;;12.07;;
19605;SDS011;9950;50.168;8.210;2022-11-20T09:01:07;23.27;;;10.27;;
19605;SDS011;9950;50.168;8.210;2022-11-20T09:03:36;23.40;;;10.88;;
19605;SDS011;9950;50.168;8.210;2022-11-20T09:06:05;23.10;;;10.80;;
19605;SDS011;9950;50.168;8.210;2022-11-20T09:08:35;22.33;;;10.52;;
19605;SDS011;9950;50.168;8.210;2022-11-20T09:11:04;27.27;;;10.77;;
19605;SDS011;9950;50.168;8.210;2022-11-20T09:13:33;25.20;;;11.63;;
19605;SDS011;9950;50.168;8.210;2022-11-20T09:16:03;23.60;;;11.20;;
19605;SDS011;9950;50.168;8.210;2022-11-20T09:18:32;26.65;;;10.82;;
19605;SDS011;9950;50.168;8.210;2022-11-20T09:21:03;26.35;;;11.73;;
19605;SDS011;9950;50.168;8.210;2022-11-20T09:23:32;24.83;;;11.63;;
19605;SDS011;9950;50.168;8.210;2022-11-20T09:26:04;27.42;;;12.85;;
19605;SDS011;9950;50.168;8.210;2022-11-20T09:28:34;23.45;;;11.23;;
19605;SDS011;9950;50.168;8.210;2022-11-20T09:31:04;21.67;;;11.40;;
19605;SDS011;9950;50.168;8.210;2022-11-20T09:33:33;22.08;;;11.25;;
19605;SDS011;9950;50.168;8.210;2022-11-20T09:36:02;21.85;;;11.70;;
19605;SDS011;9950;50.168;8.210;2022-11-20T09:38:30;21.23;;;10.77;;
19605;SDS011;9950;50.168;8.210;2022-11-20T09:40:58;22.50;;;11.13;;
19605;SDS011;9950;50.168;8.210;2022-11-20T09:43:36;25.02;;;11.73;;
19605;SDS011;9950;50.168;8.210;2022-11-20T09:46:07;26.02;;;11.75;;
19605;SDS011;9950;50.168;8.210;2022-11-20T09:48:42;25.38;;;11.77;;
19605;SDS011;9950;50.168;8.210;2022-11-20T09:51:14;21.42;;;11.70;;
19605;SDS011;9950;50.168;8.210;2022-11-20T09:53:46;24.90;;;12.18;;
19605;SDS011;9950;50.168;8.210;2022-11-20T09:56:18;23.13;;;11.27;;
19605;SDS011;9950;50.168;8.210;2022-11-20T09:58:48;22.55;;;11.45;;
19605;SDS011;9950;50.168;8.210;2022-11-20T10:01:17;23.10;;;12.00;;
19605;SDS011;9950;50.168;8.210;2022-11-20T10:03:50;20.17;;;10.95;;
19605;SDS011;9950;50.168;8.210;2022-11-20T10:06:20;23.90;;;12.13;;
19605;SDS011;9950;50.168;8.210;2022-11-20T10:08:51;21.15;;;10.68;;
19605;SDS011;9950;50.168;8.210;2022-11-20T10:11:24;22.05;;;11.35;;
19605;SDS011;9950;50.168;8.210;2022-11-20T10:13:59;17.90;;;9.85;;
19605;SDS011;9950;50.168;8.210;2022-11-20T10:16:33;17.90;;;10.43;;
19605;SDS011;9950;50.168;8.210;2022-11-20T10:19:07;18.30;;;10.75;;
19605;SDS011;9950;50.168;8.210;2022-11-20T10:21:41;20.27;;;10.82;;
19605;SDS011;9950;50.168;8.210;2022-11-20T10:24:22;19.05;;;10.35;;
19605;SDS011;9950;50.168;8.210;2022-11-20T10:26:54;19.15;;;10.30;;
19605;SDS011;9950;50.168;8.210;2022-11-20T10:29:29;16.52;;;9.80;;
19605;SDS011;9950;50.168;8.210;2022-11-20T10:32:02;15.73;;;8.95;;
19605;SDS011;9950;50.168;8.210;2022-11-20T10:34:31;17.85;;;9.65;;
19605;SDS011;9950;50.168;8.210;2022-11-20T10:37:02;16.23;;;8.60;;
19605;SDS011;9950;50.168;8.210;2022-11-20T10:39:33;14.45;;;7.68;;
19605;SDS011;9950;50.168;8.210;2022-11-20T10:42:02;12.43;;;7.07;;
19605;SDS011;9950;50.168;8.210;2022-11-20T10:44:37;12.23;;;7.15;;
19605;SDS011;9950;50.168;8.210;2022-11-20T10:47:24;12.45;;;7.38;;
19605;SDS011;9950;50.168;8.210;2022-11-20T10:49:53;12.38;;;7.18;;
19605;SDS011;9950;50.168;8.210;2022-11-20T10:52:23;13.50;;;7.15;;
19605;SDS011;9950;50.168;8.210;2022-11-20T10:54:54;11.13;;;6.88;;
19605;SDS011;9950;50.168;8.210;2022-11-20T10:57:27;16.55;;;8.00;;
19605;SDS011;9950;50.168;8.210;2022-11-20T11:00:05;16.73;;;8.13;;
19605;SDS011;9950;50.168;8.210;2022-11-20T11:02:34;15.95;;;9.27;;
19605;SDS011;9950;50.168;8.210;2022-11-20T11:05:06;17.27;;;8.68;;
19605;SDS011;9950;50.168;8.210;2022-11-20T11:07:36;15.88;;;8.43;;
19605;SDS011;9950;50.168;8.210;2022-11-20T11:10:11;16.05;;;7.82;;
19605;SDS011;9950;50.168;8.210;2022-11-20T11:12:42;13.75;;;7.55;;
19605;SDS011;9950;50.168;8.210;2022-11-20T11:15:13;15.20;;;8.23;;
19605;SDS011;9950;50.168;8.210;2022-11-20T11:17:46;15.43;;;8.40;;
19605;SDS011;9950;50.168;8.210;2022-11-20T11:20:17;14.40;;;7.78;;
19605;SDS011;9950;50.168;8.210;2022-11-20T11:22:46;15.50;;;8.75;;
19605;SDS011;9950;50.168;8.210;2022-11-20T11:25:21;14.85;;;8.25;;
19605;SDS011;9950;50.168;8.210;2022-11-20T11:27:50;17.83;;;8.32;;
19605;SDS011;9950;50.168;8.210;2022-11-20T11:30:19;15.90;;;8.65;;
19605;SDS011;9950;50.168;8.210;2022-11-20T11:32:47;17.52;;;8.90;;
19605;SDS011;9950;50.168;8.210;2022-11-20T11:35:19;14.63;;;7.85;;
19605;SDS011;9950;50.168;8.210;2022-11-20T11:37:48;13.95;;;8.25;;
19605;SDS011;9950;50.168;8.210;2022-11-20T11:40:17;17.63;;;8.90;;
19605;SDS011;9950;50.168;8.210;2022-11-20T11:42:46;13.07;;;7.97;;
19605;SDS011;9950;50.168;8.210;2022-11-20T11:45:17;15.00;;;8.32;;
19605;SDS011;9950;50.168;8.210;2022-11-20T11:47:46;13.10;;;7.43;;
19605;SDS011;9950;50.168;8.210;2022-11-20T11:50:18;13.32;;;8.27;;
19605;SDS011;9950;50.168;8.210;2022-11-20T11:52:49;13.52;;;8.20;;
19605;SDS011;9950;50.168;8.210;2022-11-20T11:55:19;12.38;;;8.00;;
19605;SDS011;9950;50.168;8.210;2022-11-20T11:57:52;12.93;;;7.55;;
19605;SDS011;9950;50.168;8.210;2022-11-20T12:00:21;13.60;;;8.23;;
19605;SDS011;9950;50.168;8.210;2022-11-20T12:02:55;14.20;;;8.30;;
19605;SDS011;9950;50.168;8.210;2022-11-20T12:05:25;15.50;;;8.43;;
19605;SDS011;9950;50.168;8.210;2022-11-20T12:07:55;14.57;;;8.68;;
19605;SDS011;9950;50.168;8.210;2022-11-20T12:10:28;16.88;;;9.27;;
19605;SDS011;9950;50.168;8.210;2022-11-20T12:13:00;13.98;;;8.70;;
19605;SDS011;9950;50.168;8.210;2022-11-20T12:15:29;14.10;;;8.15;;
19605;SDS011;9950;50.168;8.210;2022-11-20T12:17:58;15.98;;;8.93;;
19605;SDS011;9950;50.168;8.210;2022-11-20T12:20:27;13.20;;;8.50;;
19605;SDS011;9950;50.168;8.210;2022-11-20T12:22:56;17.02;;;9.63;;
19605;SDS011;9950;50.168;8.210;2022-11-20T12:25:29;15.20;;;8.45;;
19605;SDS011;9950;50.168;8.210;2022-11-20T12:28:02;15.38;;;9.13;;
19605;SDS011;9950;50.168;8.210;2022-11-20T12:30:37;18.83;;;10.00;;
19605;SDS011;9950;50.168;8.210;2022-11-20T12:33:19;19.40;;;9.32;;
19605;SDS011;9950;50.168;8.210;2022-11-20T12:36:03;16.58;;;9.27;;
19605;SDS011;9950;50.168;8.210;2022-11-20T12:38:39;18.02;;;10.70;;
19605;SDS011;9950;50.168;8.210;2022-11-20T12:41:11;17.38;;;10.02;;
19605;SDS011;9950;50.168;8.210;2022-11-20T12:44:02;19.48;;;10.07;;
19605;SDS011;9950;50.168;8.210;2022-11-20T12:46:51;18.23;;;9.70;;
19605;SDS011;9950;50.168;8.210;2022-11-20T12:49:26;15.95;;;9.80;;
19605;SDS011;9950;50.168;8.210;2022-11-20T12:52:02;17.15;;;10.30;;
19605;SDS011;9950;50.168;8.210;2022-11-20T12:57:19;17.27;;;10.05;;
19605;SDS011;9950;50.168;8.210;2022-11-20T12:59:54;18.88;;;10.25;;
19605;SDS011;9950;50.168;8.210;2022-11-20T13:02:25;16.85;;;10.13;;
19605;SDS011;9950;50.168;8.210;2022-11-20T13:05:03;19.73;;;10.63;;
19605;SDS011;9950;50.168;8.210;2022-11-20T13:07:33;18.38;;;10.60;;
19605;SDS011;9950;50.168;8.210;2022-11-20T13:10:02;21.55;;;11.60;;
19605;SDS011;9950;50.168;8.210;2022-11-20T13:12:31;21.40;;;11.77;;
19605;SDS011;9950;50.168;8.210;2022-11-20T13:15:02;21.42;;;11.02;;
19605;SDS011;9950;50.168;8.210;2022-11-20T13:17:35;22.58;;;10.93;;
19605;SDS011;9950;50.168;8.210;2022-11-20T13:20:05;21.45;;;11.00;;
19605;SDS011;9950;50.168;8.210;2022-11-20T13:22:42;17.80;;;10.10;;
19605;SDS011;9950;50.168;8.210;2022-11-20T13:25:09;17.85;;;9.63;;
19605;SDS011;9950;50.168;8.210;2022-11-20T13:27:46;18.85;;;10.02;;
19605;SDS011;9950;50.168;8.210;2022-11-20T13:30:14;16.60;;;9.38;;
19605;SDS011;9950;50.168;8.210;2022-11-20T13:32:51;19.17;;;9.13;;
19605;SDS011;9950;50.168;8.210;2022-11-20T13:35:28;16.80;;;9.35;;
19605;SDS011;9950;50.168;8.210;2022-11-20T13:37:59;18.88;;;9.27;;
19605;SDS011;9950;50.168;8.210;2022-11-20T13:40:30;20.55;;;10.50;;
19605;SDS011;9950;50.168;8.210;2022-11-20T13:43:01;20.10;;;10.52;;
19605;SDS011;9950;50.168;8.210;2022-11-20T13:45:31;19.60;;;9.13;;
19605;SDS011;9950;50.168;8.210;2022-11-20T13:48:03;18.23;;;9.10;;
19605;SDS011;9950;50.168;8.210;2022-11-20T13:50:43;18.77;;;9.77;;
19605;SDS011;9950;50.168;8.210;2022-11-20T13:53:19;23.20;;;11.25;;
19605;SDS011;9950;50.168;8.210;2022-11-20T13:55:51;30.58;;;14.15;;
19605;SDS011;9950;50.168;8.210;2022-11-20T13:58:24;29.88;;;14.73;;
19605;SDS011;9950;50.168;8.210;2022-11-20T14:00:58;32.83;;;15.27;;
19605;SDS011;9950;50.168;8.210;2022-11-20T14:03:28;32.97;;;14.85;;
19605;SDS011;9950;50.168;8.210;2022-11-20T14:05:59;31.98;;;15.82;;
19605;SDS011;9950;50.168;8.210;2022-11-20T14:08:30;31.88;;;14.98;;
19605;SDS011;9950;50.168;8.210;2022-11-20T14:11:03;28.23;;;14.10;;
19605;SDS011;9950;50.168;8.210;2022-11-20T14:13:30;28.95;;;13.65;;
19605;SDS011;9950;50.168;8.210;2022-11-20T14:15:58;29.02;;;14.50;;
19605;SDS011;9950;50.168;8.210;2022-11-20T14:18:26;25.35;;;13.55;;
19605;SDS011;9950;50.168;8.210;2022-11-20T14:21:01;30.13;;;15.05;;
19605;SDS011;9950;50.168;8.210;2022-11-20T14:23:29;30.60;;;13.60;;
19605;SDS011;9950;50.168;8.210;2022-11-20T14:25:57;26.30;;;13.27;;
19605;SDS011;9950;50.168;8.210;2022-11-20T14:28:25;28.67;;;13.65;;
19605;SDS011;9950;50.168;8.210;2022-11-20T14:30:53;31.10;;;13.90;;
19605;SDS011;9950;50.168;8.210;2022-11-20T14:33:21;25.00;;;12.48;;
19605;SDS011;9950;50.168;8.210;2022-11-20T14:35:51;29.45;;;13.90;;
19605;SDS011;9950;50.168;8.210;2022-11-20T14:38:22;27.55;;;13.77;;
19605;SDS011;9950;50.168;8.210;2022-11-20T14:40:50;26.85;;;12.98;;
19605;SDS011;9950;50.168;8.210;2022-11-20T14:43:20;25.38;;;12.52;;
19605;SDS011;9950;50.168;8.210;2022-11-20T14:45:49;29.63;;;13.57;;
19605;SDS011;9950;50.168;8.210;2022-11-20T14:48:19;29.00;;;13.30;;
19605;SDS011;9950;50.168;8.210;2022-11-20T14:50:51;24.08;;;11.48;;
19605;SDS011;9950;50.168;8.210;2022-11-20T14:53:23;22.10;;;10.88;;